createdAt,value
2023-02-03T00:00:20.963Z,100328.27
2023-02-03T00:00:44.176Z,100326.27
2023-02-03T00:01:07.309Z,100324.45
2023-02-03T00:01:33.092Z,100324.65
2023-02-03T00:01:57.136Z,100324.44
2023-02-03T00:02:20.769Z,100326.35
2023-02-03T00:02:45.380Z,100325.36
2023-02-03T00:03:08.836Z,100325.89
2023-02-03T00:03:32.444Z,100326.27
2023-02-03T00:03:55.642Z,100324.77
2023-02-03T00:04:18.648Z,100323.08
2023-02-03T00:04:41.756Z,100324.36
2023-02-03T00:05:05.696Z,100325.26
2023-02-03T00:05:28.911Z,100323.39
2023-02-03T00:05:52.636Z,100323.29
2023-02-03T00:06:15.953Z,100323.30
2023-02-03T00:06:38.975Z,100323.70
2023-02-03T00:07:01.933Z,100325.47
2023-02-03T00:07:25.703Z,100324.78
2023-02-03T00:07:49.230Z,100323.69
2023-02-03T00:08:12.461Z,100324.22
2023-02-03T00:08:36.073Z,100322.71
2023-02-03T00:08:59.611Z,100322.63
2023-02-03T00:09:22.806Z,100324.54
2023-02-03T00:09:46.739Z,100326.17
2023-02-03T00:10:10.161Z,100327.23
2023-02-03T00:10:35.936Z,100326.59
2023-02-03T00:10:59.460Z,100326.27
2023-02-03T00:11:22.800Z,100326.41
2023-02-03T00:11:45.993Z,100326.05
2023-02-03T00:12:09.313Z,100326.55
2023-02-03T00:12:34.266Z,100326.59
2023-02-03T00:12:58.411Z,100327.75
2023-02-03T00:13:21.345Z,100327.98
2023-02-03T00:13:44.461Z,100324.91
2023-02-03T00:14:08.161Z,100327.09
2023-02-03T00:14:31.129Z,100325.11
2023-02-03T00:14:54.690Z,100324.17
2023-02-03T00:15:19.074Z,100322.58
2023-02-03T00:15:42.247Z,100324.30
2023-02-03T00:16:06.829Z,100326.59
2023-02-03T00:16:29.958Z,100325.59
2023-02-03T00:16:53.226Z,100324.08
2023-02-03T00:17:16.276Z,100326.89
2023-02-03T00:17:43.106Z,100327.48
2023-02-03T00:18:06.370Z,100324.25
2023-02-03T00:18:29.574Z,100327.11
2023-02-03T00:18:52.682Z,100324.05
2023-02-03T00:19:17.605Z,100327.46
2023-02-03T00:19:41.174Z,100329.05
2023-02-03T00:20:04.796Z,100330.18
2023-02-03T00:20:28.499Z,100330.42
2023-02-03T00:20:51.946Z,100334.84
2023-02-03T00:21:15.558Z,100333.14
2023-02-03T00:21:38.700Z,100336.53
2023-02-03T00:22:01.792Z,100338.68
2023-02-03T00:22:25.214Z,100341.88
2023-02-03T00:22:48.311Z,100342.41
2023-02-03T00:23:11.386Z,100339.50
2023-02-03T00:23:34.655Z,100340.65
2023-02-03T00:23:57.694Z,100341.23
2023-02-03T00:24:23.548Z,100340.52
2023-02-03T00:24:46.655Z,100340.92
2023-02-03T00:25:09.789Z,100345.20
2023-02-03T00:25:33.810Z,100341.02
2023-02-03T00:25:57.129Z,100343.64
2023-02-03T00:26:20.337Z,100343.39
2023-02-03T00:26:43.790Z,100342.67
2023-02-03T00:27:07.382Z,100342.95
2023-02-03T00:27:31.828Z,100342.52
2023-02-03T00:27:56.529Z,100346.39
2023-02-03T00:28:20.204Z,100345.08
2023-02-03T00:28:43.190Z,100341.88
2023-02-03T00:29:07.532Z,100344.75
2023-02-03T00:29:30.595Z,100346.60
2023-02-03T00:29:53.888Z,100347.73
2023-02-03T00:30:17.104Z,100346.84
2023-02-03T00:30:40.340Z,100349.46
2023-02-03T00:31:03.999Z,100351.05
2023-02-03T00:31:27.174Z,100346.35
2023-02-03T00:31:50.474Z,100347.58
2023-02-03T00:32:13.740Z,100347.96
2023-02-03T00:32:37.574Z,100346.11
2023-02-03T00:33:01.666Z,100345.64
2023-02-03T00:33:25.187Z,100344.83
2023-02-03T00:33:48.614Z,100346.25
2023-02-03T00:34:13.871Z,100347.18
2023-02-03T00:34:36.776Z,100344.29
2023-02-03T00:34:59.925Z,100342.63
2023-02-03T00:35:23.412Z,100342.30
2023-02-03T00:35:46.535Z,100345.48
2023-02-03T00:36:09.848Z,100343.96
2023-02-03T00:36:32.856Z,100343.15
2023-02-03T00:36:56.588Z,100341.81
2023-02-03T00:37:19.910Z,100343.25
2023-02-03T00:37:43.120Z,100343.30
2023-02-03T00:38:06.542Z,100340.41
2023-02-03T00:38:29.848Z,100342.52
2023-02-03T00:38:53.287Z,100342.58
2023-02-03T00:39:16.306Z,100345.27
2023-02-03T00:39:39.642Z,100345.31
2023-02-03T00:40:02.689Z,100344.07
2023-02-03T00:40:26.590Z,100346.29
2023-02-03T00:40:53.764Z,100342.24
2023-02-03T00:41:17.523Z,100344.77
2023-02-03T00:41:40.706Z,100345.20
2023-02-03T00:42:04.351Z,100345.79
2023-02-03T00:42:28.780Z,100347.07
2023-02-03T00:42:52.093Z,100347.85
2023-02-03T00:43:15.203Z,100347.22
2023-02-03T00:43:38.248Z,100344.91
2023-02-03T00:44:01.394Z,100347.06
2023-02-03T00:44:25.561Z,100347.77
2023-02-03T00:44:48.698Z,100349.14
2023-02-03T00:45:11.901Z,100346.36
2023-02-03T00:45:34.997Z,100343.42
2023-02-03T00:45:58.654Z,100346.04
2023-02-03T00:46:22.021Z,100349.05
2023-02-03T00:46:45.279Z,100349.99
2023-02-03T00:47:08.371Z,100350.55
2023-02-03T00:47:31.625Z,100349.21
2023-02-03T00:47:54.719Z,100351.68
2023-02-03T00:48:18.450Z,100352.95
2023-02-03T00:48:41.775Z,100348.81
2023-02-03T00:49:04.843Z,100349.89
2023-02-03T00:49:28.414Z,100350.78
2023-02-03T00:49:52.211Z,100353.80
2023-02-03T00:50:15.455Z,100352.27
2023-02-03T00:50:39.077Z,100351.47
2023-02-03T00:51:02.173Z,100349.27
2023-02-03T00:51:25.425Z,100349.64
2023-02-03T00:51:51.162Z,100350.05
2023-02-03T00:52:14.093Z,100353.23
2023-02-03T00:52:37.204Z,100349.45
2023-02-03T00:53:00.320Z,100348.77
2023-02-03T00:53:23.435Z,100349.20
2023-02-03T00:53:47.067Z,100346.79
2023-02-03T00:54:13.961Z,100351.36
2023-02-03T00:54:38.024Z,100349.77
2023-02-03T00:55:01.322Z,100349.73
2023-02-03T00:55:24.732Z,100349.86
2023-02-03T00:55:47.851Z,100347.15
2023-02-03T00:56:12.929Z,100349.85
2023-02-03T00:56:36.231Z,100348.50
2023-02-03T00:56:59.437Z,100351.02
2023-02-03T00:57:22.356Z,100350.05
2023-02-03T00:57:45.666Z,100347.16
2023-02-03T00:58:08.990Z,100347.42
2023-02-03T00:58:33.734Z,100350.87
2023-02-03T00:59:00.537Z,100351.69
2023-02-03T00:59:24.367Z,100350.14
2023-02-03T00:59:47.999Z,100349.95
2023-02-03T01:00:11.608Z,100347.89
2023-02-03T01:00:35.970Z,100351.94
2023-02-03T01:00:59.398Z,100351.96
2023-02-03T01:01:22.510Z,100352.23
2023-02-03T01:01:46.370Z,100351.73
2023-02-03T01:02:09.784Z,100351.77
2023-02-03T01:02:33.209Z,100346.27
2023-02-03T01:02:56.300Z,100349.97
2023-02-03T01:03:19.586Z,100347.08
2023-02-03T01:03:42.909Z,100349.21
2023-02-03T01:04:06.029Z,100348.71
2023-02-03T01:04:30.262Z,100349.81
2023-02-03T01:04:53.379Z,100348.45
2023-02-03T01:05:16.800Z,100349.91
2023-02-03T01:05:43.390Z,100347.00
2023-02-03T01:06:14.210Z,100346.92
2023-02-03T01:06:37.159Z,100349.92
2023-02-03T01:07:00.562Z,100345.08
2023-02-03T01:07:23.941Z,100343.39
2023-02-03T01:07:47.556Z,100346.59
2023-02-03T01:08:10.770Z,100346.95
2023-02-03T01:08:34.507Z,100346.70
2023-02-03T01:08:57.609Z,100349.01
2023-02-03T01:09:20.533Z,100345.91
2023-02-03T01:09:43.836Z,100346.30
2023-02-03T01:10:07.671Z,100347.02
2023-02-03T01:10:32.623Z,100347.88
2023-02-03T01:10:55.736Z,100348.84
2023-02-03T01:11:19.669Z,100349.77
2023-02-03T01:11:44.725Z,100347.79
2023-02-03T01:12:07.853Z,100350.63
2023-02-03T01:12:31.283Z,100351.73
2023-02-03T01:12:55.107Z,100351.48
2023-02-03T01:13:18.407Z,100355.89
2023-02-03T01:13:41.526Z,100350.77
2023-02-03T01:14:04.636Z,100353.14
2023-02-03T01:14:27.853Z,100356.06
2023-02-03T01:14:50.867Z,100352.73
2023-02-03T01:15:13.876Z,100354.48
2023-02-03T01:15:37.109Z,100354.16
2023-02-03T01:16:03.893Z,100354.02
2023-02-03T01:16:28.659Z,100353.37
2023-02-03T01:16:52.302Z,100353.08
2023-02-03T01:17:16.094Z,100354.00
2023-02-03T01:17:39.313Z,100351.82
2023-02-03T01:18:02.324Z,100356.39
2023-02-03T01:18:25.547Z,100351.70
2023-02-03T01:18:48.682Z,100355.10
2023-02-03T01:19:12.382Z,100351.66
2023-02-03T01:19:35.699Z,100350.14
2023-02-03T01:19:58.719Z,100351.08
2023-02-03T01:20:21.920Z,100353.73
2023-02-03T01:20:45.149Z,100352.20
2023-02-03T01:21:08.943Z,100355.58
2023-02-03T01:21:32.196Z,100351.79
2023-02-03T01:21:55.304Z,100352.20
2023-02-03T01:22:18.423Z,100355.55
2023-02-03T01:22:41.534Z,100352.67
2023-02-03T01:23:04.434Z,100353.94
2023-02-03T01:23:32.976Z,100351.48
2023-02-03T01:23:56.510Z,100352.31
2023-02-03T01:24:19.619Z,100354.00
2023-02-03T01:24:45.709Z,100355.48
2023-02-03T01:25:09.014Z,100353.11
2023-02-03T01:25:32.637Z,100354.23
2023-02-03T01:25:55.757Z,100351.55
2023-02-03T01:26:20.299Z,100353.91
2023-02-03T01:26:44.038Z,100355.44
2023-02-03T01:27:07.457Z,100354.67
2023-02-03T01:27:31.889Z,100353.95
2023-02-03T01:27:54.929Z,100354.48
2023-02-03T01:28:20.064Z,100355.52
2023-02-03T01:28:43.278Z,100357.29
2023-02-03T01:29:08.438Z,100353.05
2023-02-03T01:29:31.347Z,100353.40
2023-02-03T01:29:54.458Z,100352.59
2023-02-03T01:30:17.881Z,100352.63
2023-02-03T01:30:41.239Z,100350.79
2023-02-03T01:31:11.407Z,100352.25
2023-02-03T01:31:37.310Z,100355.27
2023-02-03T01:32:03.016Z,100354.83
2023-02-03T01:32:26.543Z,100353.14
2023-02-03T01:32:49.467Z,100351.63
2023-02-03T01:33:12.777Z,100353.77
2023-02-03T01:33:35.986Z,100353.09
2023-02-03T01:34:01.350Z,100352.44
2023-02-03T01:34:24.471Z,100352.64
2023-02-03T01:34:47.578Z,100353.92
2023-02-03T01:35:10.692Z,100354.80
2023-02-03T01:35:35.063Z,100354.30
2023-02-03T01:36:00.399Z,100353.30
2023-02-03T01:36:25.045Z,100352.91
2023-02-03T01:36:48.062Z,100352.83
2023-02-03T01:37:11.275Z,100349.09
2023-02-03T01:37:34.289Z,100349.34
2023-02-03T01:37:57.502Z,100349.74
2023-02-03T01:38:20.821Z,100350.28
2023-02-03T01:38:45.062Z,100348.95
2023-02-03T01:39:07.969Z,100350.59
2023-02-03T01:39:31.501Z,100349.10
2023-02-03T01:39:55.533Z,100349.56
2023-02-03T01:40:19.246Z,100350.19
2023-02-03T01:40:43.602Z,100348.94
2023-02-03T01:41:07.647Z,100349.63
2023-02-03T01:41:32.177Z,100348.95
2023-02-03T01:41:55.414Z,100348.42
2023-02-03T01:42:18.515Z,100351.56
2023-02-03T01:42:41.827Z,100352.33
2023-02-03T01:43:04.945Z,100351.46
2023-02-03T01:43:38.076Z,100351.52
2023-02-03T01:44:02.037Z,100353.94
2023-02-03T01:44:34.286Z,100352.60
2023-02-03T01:44:58.672Z,100353.17
2023-02-03T01:45:21.786Z,100351.14
2023-02-03T01:45:44.803Z,100349.92
2023-02-03T01:46:26.980Z,100347.52
2023-02-03T01:46:50.066Z,100349.15
2023-02-03T01:47:14.782Z,100347.77
2023-02-03T01:47:40.775Z,100350.58
2023-02-03T01:48:04.198Z,100349.23
2023-02-03T01:48:27.614Z,100349.80
2023-02-03T01:48:52.366Z,100350.35
2023-02-03T01:49:19.980Z,100348.78
2023-02-03T01:49:44.835Z,100352.25
2023-02-03T01:50:08.051Z,100352.16
2023-02-03T01:50:32.392Z,100351.02
2023-02-03T01:50:55.709Z,100354.44
2023-02-03T01:51:18.824Z,100352.23
2023-02-03T01:51:43.304Z,100352.30
2023-02-03T01:52:06.585Z,100354.92
2023-02-03T01:52:29.803Z,100355.55
2023-02-03T01:53:13.266Z,100353.89
2023-02-03T01:53:37.616Z,100353.39
2023-02-03T01:54:00.623Z,100356.27
2023-02-03T01:54:24.757Z,100354.20
2023-02-03T01:54:49.203Z,100353.31
2023-02-03T01:55:13.447Z,100352.62
2023-02-03T01:55:38.616Z,100354.21
2023-02-03T01:56:01.918Z,100353.39
2023-02-03T01:56:25.547Z,100356.39
2023-02-03T01:56:51.114Z,100353.26
2023-02-03T01:57:16.372Z,100355.90
2023-02-03T01:57:42.569Z,100357.31
2023-02-03T01:58:13.038Z,100355.96
2023-02-03T01:58:37.682Z,100359.67
2023-02-03T01:59:01.115Z,100358.31
2023-02-03T01:59:27.603Z,100358.30
2023-02-03T01:59:53.777Z,100360.06
2023-02-03T02:00:17.226Z,100358.36
2023-02-03T02:00:40.321Z,100358.58
2023-02-03T02:01:03.938Z,100359.64
2023-02-03T02:01:28.112Z,100361.20
2023-02-03T02:01:51.493Z,100360.56
2023-02-03T02:02:14.411Z,100360.74
2023-02-03T02:02:37.866Z,100360.75
2023-02-03T02:03:02.063Z,100361.77
2023-02-03T02:03:32.531Z,100363.42
2023-02-03T02:03:56.377Z,100364.71
2023-02-03T02:04:19.386Z,100363.75
2023-02-03T02:04:48.293Z,100362.92
2023-02-03T02:05:23.004Z,100365.55
2023-02-03T02:05:54.713Z,100362.61
2023-02-03T02:06:17.713Z,100366.27
2023-02-03T02:06:40.725Z,100366.86
2023-02-03T02:07:08.654Z,100365.36
2023-02-03T02:07:32.506Z,100366.20
2023-02-03T02:07:55.794Z,100365.48
2023-02-03T02:08:19.112Z,100365.30
2023-02-03T02:08:42.944Z,100365.63
2023-02-03T02:09:10.046Z,100362.85
2023-02-03T02:09:33.264Z,100363.58
2023-02-03T02:09:56.377Z,100364.61
2023-02-03T02:10:20.125Z,100364.42
2023-02-03T02:10:44.550Z,100362.87
2023-02-03T02:11:07.770Z,100364.98
2023-02-03T02:11:30.885Z,100367.08
2023-02-03T02:11:54.398Z,100365.54
2023-02-03T02:12:17.719Z,100363.79
2023-02-03T02:12:40.935Z,100367.96
2023-02-03T02:13:04.254Z,100367.99
2023-02-03T02:13:28.499Z,100368.35
2023-02-03T02:13:52.054Z,100368.20
2023-02-03T02:14:15.134Z,100365.44
2023-02-03T02:14:38.549Z,100368.44
2023-02-03T02:15:02.491Z,100368.52
2023-02-03T02:15:29.158Z,100370.07
2023-02-03T02:16:02.222Z,100370.67
2023-02-03T02:16:33.307Z,100370.33
2023-02-03T02:17:02.971Z,100370.14
2023-02-03T02:17:26.587Z,100369.52
2023-02-03T02:18:01.978Z,100370.83
2023-02-03T02:18:32.145Z,100369.78
2023-02-03T02:19:07.231Z,100370.50
2023-02-03T02:19:52.446Z,100369.81
2023-02-03T02:20:36.422Z,100366.79
2023-02-03T02:20:59.526Z,100369.60
2023-02-03T02:21:36.007Z,100367.64
2023-02-03T02:21:59.155Z,100366.41
2023-02-03T02:22:28.383Z,100370.21
2023-02-03T02:23:11.590Z,100370.02
2023-02-03T02:23:34.576Z,100367.97
2023-02-03T02:24:09.836Z,100366.98
2023-02-03T02:24:43.811Z,100364.77
2023-02-03T02:25:10.747Z,100364.61
2023-02-03T02:25:48.980Z,100363.74
2023-02-03T02:26:21.041Z,100363.42
2023-02-03T02:26:44.802Z,100368.69
2023-02-03T02:27:20.212Z,100365.94
2023-02-03T02:28:02.682Z,100368.41
2023-02-03T02:28:26.565Z,100369.35
2023-02-03T02:28:58.783Z,100368.34
2023-02-03T02:29:37.241Z,100370.29
2023-02-03T02:30:03.010Z,100369.98
2023-02-03T02:30:37.243Z,100372.97
2023-02-03T02:31:26.980Z,100369.17
2023-02-03T02:32:09.941Z,100371.52
2023-02-03T02:32:33.766Z,100371.49
2023-02-03T02:32:59.846Z,100373.13
2023-02-03T02:33:33.605Z,100368.95
2023-02-03T02:33:58.347Z,100369.85
2023-02-03T02:34:24.629Z,100367.13
2023-02-03T02:34:51.119Z,100366.33
2023-02-03T02:35:25.787Z,100369.56
2023-02-03T02:35:57.429Z,100368.60
2023-02-03T02:36:30.638Z,100367.20
2023-02-03T02:37:12.673Z,100366.13
2023-02-03T02:37:50.099Z,100366.48
2023-02-03T02:38:20.682Z,100365.85
2023-02-03T02:39:02.001Z,100367.11
2023-02-03T02:39:38.102Z,100368.72
2023-02-03T02:40:27.488Z,100365.13
2023-02-03T02:41:00.942Z,100364.17
2023-02-03T02:41:28.965Z,100366.60
2023-02-03T02:42:07.319Z,100362.88
2023-02-03T02:42:44.046Z,100366.71
2023-02-03T02:43:25.968Z,100363.47
2023-02-03T02:43:56.755Z,100360.78
2023-02-03T02:44:23.346Z,100359.21
2023-02-03T02:44:48.507Z,100360.71
2023-02-03T02:45:15.711Z,100364.20
2023-02-03T02:45:52.972Z,100363.13
2023-02-03T02:46:17.708Z,100358.70
2023-02-03T02:46:43.997Z,100357.73
2023-02-03T02:47:09.439Z,100358.86
2023-02-03T02:47:35.211Z,100358.02
2023-02-03T02:48:06.645Z,100359.15
2023-02-03T02:48:32.383Z,100359.02
2023-02-03T02:49:03.777Z,100356.42
2023-02-03T02:49:34.974Z,100358.62
2023-02-03T02:49:57.994Z,100359.91
2023-02-03T02:50:22.842Z,100359.73
2023-02-03T02:50:46.718Z,100360.25
2023-02-03T02:51:10.021Z,100359.55
2023-02-03T02:51:33.621Z,100357.00
2023-02-03T02:51:58.077Z,100361.20
2023-02-03T02:52:22.290Z,100359.04
2023-02-03T02:52:47.523Z,100358.35
2023-02-03T02:53:11.127Z,100362.09
2023-02-03T02:53:35.832Z,100362.30
2023-02-03T02:54:03.047Z,100363.89
2023-02-03T02:54:26.867Z,100365.01
2023-02-03T02:54:51.423Z,100363.63
2023-02-03T02:55:15.928Z,100360.34
2023-02-03T02:55:39.990Z,100362.95
2023-02-03T02:56:05.567Z,100361.80
2023-02-03T02:56:28.993Z,100362.52
2023-02-03T02:56:53.630Z,100362.02
2023-02-03T02:57:16.931Z,100360.15
2023-02-03T02:57:40.002Z,100362.95
2023-02-03T02:58:04.422Z,100362.65
2023-02-03T02:58:27.314Z,100363.56
2023-02-03T02:58:50.964Z,100362.14
2023-02-03T02:59:13.954Z,100362.80
2023-02-03T02:59:36.984Z,100364.33
2023-02-03T03:00:00.488Z,100363.72
2023-02-03T03:00:24.082Z,100361.56
2023-02-03T03:00:48.654Z,100363.70
2023-02-03T03:01:15.920Z,100364.07
2023-02-03T03:01:42.434Z,100363.42
2023-02-03T03:02:06.606Z,100366.79
2023-02-03T03:02:32.587Z,100361.06
2023-02-03T03:02:55.811Z,100363.60
2023-02-03T03:03:22.692Z,100361.45
2023-02-03T03:03:45.793Z,100361.61
2023-02-03T03:04:09.319Z,100363.50
2023-02-03T03:04:33.919Z,100361.91
2023-02-03T03:04:57.416Z,100360.01
2023-02-03T03:05:20.808Z,100358.10
2023-02-03T03:05:50.882Z,100359.67
2023-02-03T03:06:17.368Z,100359.91
2023-02-03T03:06:43.313Z,100357.13
2023-02-03T03:07:08.093Z,100355.94
2023-02-03T03:07:32.336Z,100359.08
2023-02-03T03:07:56.306Z,100361.36
2023-02-03T03:08:25.522Z,100361.19
2023-02-03T03:08:59.172Z,100361.59
2023-02-03T03:09:23.407Z,100360.39
2023-02-03T03:09:51.952Z,100356.41
2023-02-03T03:10:16.288Z,100359.54
2023-02-03T03:10:39.190Z,100356.94
2023-02-03T03:11:03.630Z,100359.41
2023-02-03T03:11:27.464Z,100354.04
2023-02-03T03:12:54.701Z,100354.63
2023-02-03T03:13:20.477Z,100355.67
2023-02-03T03:13:46.199Z,100352.34
2023-02-03T03:14:09.357Z,100352.46
2023-02-03T03:14:32.477Z,100352.60
2023-02-03T03:14:56.920Z,100352.84
2023-02-03T03:15:22.384Z,100349.41
2023-02-03T03:15:45.864Z,100352.40
2023-02-03T03:16:09.448Z,100350.03
2023-02-03T03:16:33.059Z,100350.79
2023-02-03T03:16:57.715Z,100351.52
2023-02-03T03:17:25.931Z,100350.35
2023-02-03T03:18:16.254Z,100352.71
2023-02-03T03:19:02.729Z,100351.77
2023-02-03T03:19:29.786Z,100349.52
2023-02-03T03:19:56.582Z,100350.09
2023-02-03T03:20:21.033Z,100347.68
2023-02-03T03:20:44.550Z,100347.39
2023-02-03T03:21:07.461Z,100348.14
2023-02-03T03:21:51.129Z,100349.73
2023-02-03T03:22:15.067Z,100351.88
2023-02-03T03:22:39.614Z,100350.20
2023-02-03T03:23:11.902Z,100347.81
2023-02-03T03:23:39.425Z,100347.20
2023-02-03T03:24:04.189Z,100346.39
2023-02-03T03:24:29.760Z,100347.46
2023-02-03T03:24:54.642Z,100345.98
2023-02-03T03:25:18.550Z,100346.70
2023-02-03T03:25:43.814Z,100346.77
2023-02-03T03:26:12.956Z,100347.69
2023-02-03T03:26:37.045Z,100346.89
2023-02-03T03:27:00.411Z,100346.77
2023-02-03T03:27:24.954Z,100349.56
2023-02-03T03:27:52.721Z,100348.91
2023-02-03T03:28:24.230Z,100346.81
2023-02-03T03:28:48.321Z,100346.20
2023-02-03T03:29:11.322Z,100348.40
2023-02-03T03:29:36.889Z,100350.06
2023-02-03T03:29:59.906Z,100345.60
2023-02-03T03:30:23.819Z,100350.50
2023-02-03T03:30:47.265Z,100347.97
2023-02-03T03:31:10.744Z,100348.91
2023-02-03T03:31:33.963Z,100351.41
2023-02-03T03:31:57.619Z,100347.52
2023-02-03T03:32:20.841Z,100348.30
2023-02-03T03:32:44.156Z,100348.45
2023-02-03T03:33:07.266Z,100348.62
2023-02-03T03:33:30.195Z,100350.19
2023-02-03T03:33:53.196Z,100347.59
2023-02-03T03:34:16.310Z,100348.52
2023-02-03T03:34:40.031Z,100349.95
2023-02-03T03:35:03.220Z,100347.92
2023-02-03T03:35:28.898Z,100353.58
2023-02-03T03:36:10.868Z,100350.66
2023-02-03T03:36:38.265Z,100350.60
2023-02-03T03:37:03.427Z,100352.73
2023-02-03T03:37:34.829Z,100352.35
2023-02-03T03:38:03.258Z,100353.45
2023-02-03T03:38:35.404Z,100353.16
2023-02-03T03:39:04.412Z,100353.59
2023-02-03T03:39:45.980Z,100358.02
2023-02-03T03:40:13.047Z,100357.44
2023-02-03T03:40:40.209Z,100358.70
2023-02-03T03:41:07.758Z,100359.48
2023-02-03T03:41:38.436Z,100359.54
2023-02-03T03:42:09.638Z,100360.83
2023-02-03T03:42:34.383Z,100357.42
2023-02-03T03:43:02.508Z,100356.23
2023-02-03T03:43:27.050Z,100363.94
2023-02-03T03:43:50.268Z,100363.70
2023-02-03T03:44:13.997Z,100365.73
2023-02-03T03:44:44.991Z,100365.29
2023-02-03T03:45:17.307Z,100365.14
2023-02-03T03:45:41.237Z,100366.05
2023-02-03T03:46:06.935Z,100366.46
2023-02-03T03:46:36.234Z,100360.59
2023-02-03T03:47:15.635Z,100362.83
2023-02-03T03:47:40.085Z,100364.81
2023-02-03T03:48:04.628Z,100362.89
2023-02-03T03:48:29.300Z,100359.06
2023-02-03T03:49:05.172Z,100360.63
2023-02-03T03:49:28.385Z,100363.46
2023-02-03T03:49:52.116Z,100361.09
2023-02-03T03:50:18.919Z,100360.05
2023-02-03T03:50:46.319Z,100361.14
2023-02-03T03:51:10.963Z,100359.78
2023-02-03T03:51:34.082Z,100358.09
2023-02-03T03:51:58.633Z,100358.98
2023-02-03T03:52:25.942Z,100360.63
2023-02-03T03:52:49.567Z,100360.30
2023-02-03T03:53:12.573Z,100359.63
2023-02-03T03:53:36.202Z,100360.40
2023-02-03T03:54:02.388Z,100357.63
2023-02-03T03:54:29.177Z,100360.27
2023-02-03T03:54:52.421Z,100359.29
2023-02-03T03:55:16.430Z,100360.86
2023-02-03T03:55:39.316Z,100357.13
2023-02-03T03:56:02.659Z,100356.48
2023-02-03T03:56:29.456Z,100356.14
2023-02-03T03:57:15.305Z,100357.46
2023-02-03T03:57:44.532Z,100358.25
2023-02-03T03:58:14.897Z,100358.99
2023-02-03T03:58:37.907Z,100358.88
2023-02-03T03:59:01.103Z,100359.96
2023-02-03T03:59:24.450Z,100360.33
2023-02-03T03:59:48.690Z,100359.23
2023-02-03T04:00:12.123Z,100357.63
2023-02-03T04:00:35.727Z,100358.64
2023-02-03T04:01:00.584Z,100355.27
2023-02-03T04:01:24.227Z,100357.11
2023-02-03T04:01:50.969Z,100358.61
2023-02-03T04:02:14.463Z,100359.01
2023-02-03T04:02:38.593Z,100356.86
2023-02-03T04:03:03.575Z,100357.82
2023-02-03T04:03:33.405Z,100356.42
2023-02-03T04:03:58.950Z,100354.80
2023-02-03T04:04:23.402Z,100354.31
2023-02-03T04:04:46.412Z,100355.52
2023-02-03T04:05:09.826Z,100355.73
2023-02-03T04:05:33.867Z,100354.92
2023-02-03T04:05:57.488Z,100353.02
2023-02-03T04:06:20.701Z,100356.36
2023-02-03T04:06:43.714Z,100354.69
2023-02-03T04:07:06.832Z,100356.55
2023-02-03T04:07:50.500Z,100359.04
2023-02-03T04:08:13.568Z,100359.30
2023-02-03T04:08:36.854Z,100360.61
2023-02-03T04:09:00.148Z,100357.36
2023-02-03T04:09:23.268Z,100358.30
2023-02-03T04:09:46.634Z,100356.98
2023-02-03T04:10:15.320Z,100357.89
2023-02-03T04:10:38.860Z,100358.16
2023-02-03T04:11:01.853Z,100359.77
2023-02-03T04:11:43.785Z,100354.95
2023-02-03T04:12:09.763Z,100355.89
2023-02-03T04:12:33.802Z,100358.41
2023-02-03T04:13:01.419Z,100363.15
2023-02-03T04:13:25.037Z,100360.65
2023-02-03T04:13:48.676Z,100358.20
2023-02-03T04:14:11.775Z,100359.08
2023-02-03T04:14:35.825Z,100361.52
2023-02-03T04:14:59.026Z,100358.52
2023-02-03T04:15:22.244Z,100358.99
2023-02-03T04:15:45.322Z,100357.88
2023-02-03T04:16:08.976Z,100357.64
2023-02-03T04:16:32.346Z,100355.66
2023-02-03T04:16:55.645Z,100356.77
2023-02-03T04:17:20.495Z,100360.34
2023-02-03T04:17:43.598Z,100359.58
2023-02-03T04:18:06.613Z,100358.48
2023-02-03T04:18:29.918Z,100358.98
2023-02-03T04:18:53.031Z,100355.83
2023-02-03T04:19:19.626Z,100360.71
2023-02-03T04:19:42.633Z,100358.85
2023-02-03T04:20:06.673Z,100357.27
2023-02-03T04:20:31.930Z,100357.48
2023-02-03T04:20:55.556Z,100357.41
2023-02-03T04:21:18.686Z,100357.09
2023-02-03T04:21:41.700Z,100357.55
2023-02-03T04:22:04.900Z,100357.75
2023-02-03T04:22:28.115Z,100359.89
2023-02-03T04:22:51.126Z,100360.67
2023-02-03T04:23:14.140Z,100365.66
2023-02-03T04:23:37.256Z,100362.21
2023-02-03T04:24:00.369Z,100361.57
2023-02-03T04:24:23.582Z,100363.02
2023-02-03T04:24:47.007Z,100362.55
2023-02-03T04:25:09.874Z,100362.25
2023-02-03T04:25:33.546Z,100362.70
2023-02-03T04:25:57.061Z,100360.31
2023-02-03T04:26:20.076Z,100362.83
2023-02-03T04:26:43.303Z,100364.61
2023-02-03T04:27:06.929Z,100363.25
2023-02-03T04:27:29.931Z,100362.89
2023-02-03T04:27:53.200Z,100361.86
2023-02-03T04:28:16.493Z,100364.48
2023-02-03T04:28:39.779Z,100362.36
2023-02-03T04:29:02.895Z,100365.63
2023-02-03T04:29:26.011Z,100366.97
2023-02-03T04:29:50.968Z,100367.29
2023-02-03T04:30:13.985Z,100365.84
2023-02-03T04:30:37.325Z,100365.45
2023-02-03T04:31:01.294Z,100364.36
2023-02-03T04:31:24.532Z,100368.48
2023-02-03T04:31:48.113Z,100365.70
2023-02-03T04:32:11.256Z,100362.92
2023-02-03T04:32:35.642Z,100363.98
2023-02-03T04:32:58.867Z,100364.92
2023-02-03T04:33:22.069Z,100363.59
2023-02-03T04:33:45.099Z,100364.15
2023-02-03T04:34:08.080Z,100366.33
2023-02-03T04:34:31.502Z,100364.27
2023-02-03T04:34:54.549Z,100365.70
2023-02-03T04:35:17.532Z,100366.46
2023-02-03T04:35:40.641Z,100369.68
2023-02-03T04:36:04.161Z,100366.08
2023-02-03T04:36:27.044Z,100365.17
2023-02-03T04:36:49.996Z,100366.31
2023-02-03T04:37:13.815Z,100367.58
2023-02-03T04:37:37.042Z,100365.94
2023-02-03T04:38:00.248Z,100370.34
2023-02-03T04:38:23.365Z,100370.25
2023-02-03T04:38:46.471Z,100370.45
2023-02-03T04:39:09.486Z,100367.92
2023-02-03T04:39:33.311Z,100370.25
2023-02-03T04:39:56.375Z,100370.59
2023-02-03T04:40:19.546Z,100369.55
2023-02-03T04:40:42.875Z,100369.55
2023-02-03T04:41:06.396Z,100373.33
2023-02-03T04:41:29.598Z,100369.92
2023-02-03T04:41:52.713Z,100371.12
2023-02-03T04:42:15.828Z,100373.16
2023-02-03T04:42:39.563Z,100374.26
2023-02-03T04:43:06.869Z,100371.48
2023-02-03T04:43:29.768Z,100372.45
2023-02-03T04:43:52.893Z,100376.20
2023-02-03T04:44:15.929Z,100376.92
2023-02-03T04:44:40.857Z,100378.79
2023-02-03T04:45:04.170Z,100376.23
2023-02-03T04:45:27.263Z,100378.36
2023-02-03T04:45:50.570Z,100377.87
2023-02-03T04:46:14.596Z,100377.77
2023-02-03T04:46:38.379Z,100379.04
2023-02-03T04:47:01.605Z,100378.07
2023-02-03T04:47:24.905Z,100380.55
2023-02-03T04:47:54.046Z,100379.20
2023-02-03T04:48:17.379Z,100377.02
2023-02-03T04:48:40.419Z,100380.21
2023-02-03T04:49:03.503Z,100380.48
2023-02-03T04:49:26.516Z,100379.54
2023-02-03T04:49:50.481Z,100377.85